PWSweather.com
Personal Weather Stations
Station Observations
CHKWX
Mesa Panagitsa, ChalkisGR 34100

Mesa PanagitsaChalkisGR 34100

Lat: 38.470143, Lon: 23.598348

Elevation: 30

Station Type: Ambient Weather WS-1400-IP

Latest ConditionsUpdated 10:40:01 PM GMT+02:02 Wednesday, Jun 20, 2018
Currently Today's Max Today's Min Today's Average
Temperature 77.5°F25.3°C 85.8°F29.9°C 75.9°F24.4°C 80.3°F26.8°C
Dew Point 63.5°F17.5°C 69.5°F20.8°C 55.0°F12.8°C 62.8°F17.1°C
Winds Calm Calm 16.1 mph -25.9 kmh - - 6.0 mph 9.7 kmh
Wind Gusts 2.3 mph3.7 kmh 25.3 mph40.7 kmh - -
Humidity 62% 75% 38% 56%
Pressure 30.00 in1015.9 mb 30.02 in1016.6 mb 29.94 in1013.9 mb -
Hour Temp Dew Point Humidity Winds Wind Gusts Pressure Precip Precip Rate Daily Precip Total
10:40 PM 77.5°F25.3°C 63.5°F17.5°C 62% Calm Calm 2.3 mph3.7 kmh 30.00 in1015.9 mb - 0.00 in0.0 mm 0.00 in0.0 mm
10:30 PM 77.5°F25.3°C 62.5°F16.9°C 60% Calm Calm 2.3 mph3.7 kmh 30.00 in1015.9 mb - 0.00 in0.0 mm 0.00 in0.0 mm
10:20 PM 77.5°F25.3°C 61.6°F16.4°C 58% 2.3 mph N3.7 kmh N 4.6 mph7.4 kmh 30.00 in1015.9 mb - 0.00 in0.0 mm 0.00 in0.0 mm
10:10 PM 77.9°F25.5°C 64.7°F18.2°C 64% Calm Calm 2.3 mph3.7 kmh 30.00 in1015.9 mb - 0.00 in0.0 mm 0.00 in0.0 mm
10:00 PM 78.1°F25.6°C 64.9°F18.3°C 64% 4.6 mph N7.4 kmh N 8.1 mph13.0 kmh 30.00 in1015.9 mb - 0.00 in0.0 mm 0.00 in0.0 mm
09:50 PM 78.3°F25.7°C 64.2°F17.9°C 62% Calm Calm 2.3 mph3.7 kmh 30.00 in1015.9 mb - 0.00 in0.0 mm 0.00 in0.0 mm
09:40 PM 78.6°F25.9°C 63.6°F17.6°C 60% 1.2 mph NE1.9 kmh NE 2.3 mph3.7 kmh 30.00 in1015.9 mb - 0.00 in0.0 mm 0.00 in0.0 mm
09:30 PM 79.0°F26.1°C 62.5°F16.9°C 57% 2.3 mph N3.7 kmh N 4.6 mph7.4 kmh 30.00 in1015.9 mb - 0.00 in0.0 mm 0.00 in0.0 mm
09:20 PM 79.5°F26.4°C 60.3°F15.7°C 52% 3.5 mph NNW5.6 kmh NNW 4.6 mph7.4 kmh 29.99 in1015.6 mb - 0.00 in0.0 mm 0.00 in0.0 mm
09:10 PM 79.7°F26.5°C 57.1°F13.9°C 46% 8.1 mph NNW13.0 kmh NNW 10.4 mph16.7 kmh 29.99 in1015.6 mb - 0.00 in0.0 mm 0.00 in0.0 mm
09:00 PM 79.7°F26.5°C 57.1°F13.9°C 46% 5.8 mph N9.3 kmh N 12.7 mph20.4 kmh 29.99 in1015.6 mb - 0.00 in0.0 mm 0.00 in0.0 mm
08:50 PM 79.7°F26.5°C 55.9°F13.3°C 44% 6.9 mph WNW11.1 kmh WNW 10.4 mph16.7 kmh 29.99 in1015.6 mb - 0.00 in0.0 mm 0.00 in0.0 mm
08:40 PM 80.1°F26.7°C 59.2°F15.1°C 49% 8.1 mph N13.0 kmh N 10.4 mph16.7 kmh 29.99 in1015.6 mb - 0.00 in0.0 mm 0.00 in0.0 mm
08:30 PM 80.2°F26.8°C 55.7°F13.2°C 43% 4.6 mph N7.4 kmh N 8.1 mph13.0 kmh 29.98 in1015.2 mb - 0.00 in0.0 mm 0.00 in0.0 mm
08:20 PM 80.2°F26.8°C 55.0°F12.8°C 42% 6.9 mph NNW11.1 kmh NNW 10.4 mph16.7 kmh 29.98 in1015.2 mb - 0.00 in0.0 mm 0.00 in0.0 mm
08:10 PM 80.2°F26.8°C 56.9°F13.8°C 45% 5.8 mph NW9.3 kmh NW 8.1 mph13.0 kmh 29.98 in1015.2 mb - 0.00 in0.0 mm 0.00 in0.0 mm
08:00 PM 80.4°F26.9°C 58.3°F14.6°C 47% 6.9 mph NW11.1 kmh NW 8.1 mph13.0 kmh 29.98 in1015.2 mb - 0.00 in0.0 mm 0.00 in0.0 mm
07:50 PM 80.6°F27.0°C 64.5°F18.1°C 58% 9.2 mph NNW14.8 kmh NNW 12.7 mph20.4 kmh 29.98 in1015.2 mb - 0.00 in0.0 mm 0.00 in0.0 mm
07:40 PM 81.0°F27.2°C 60.6°F15.9°C 50% 11.5 mph NNW18.5 kmh NNW 15.0 mph24.1 kmh 29.99 in1015.6 mb - 0.00 in0.0 mm 0.00 in0.0 mm
07:30 PM 81.1°F27.3°C 58.4°F14.7°C 46% 6.9 mph NW11.1 kmh NW 12.7 mph20.4 kmh 29.98 in1015.2 mb - 0.00 in0.0 mm 0.00 in0.0 mm
07:20 PM 81.4°F27.4°C 58.0°F14.4°C 45% 5.8 mph N9.3 kmh N 10.4 mph16.7 kmh 29.98 in1015.2 mb - 0.00 in0.0 mm 0.00 in0.0 mm
07:10 PM 81.7°F27.6°C 58.9°F14.9°C 46% 5.8 mph N9.3 kmh N 10.4 mph16.7 kmh 29.98 in1015.2 mb - 0.00 in0.0 mm 0.00 in0.0 mm
07:00 PM 81.7°F27.6°C 60.1°F15.6°C 48% 8.1 mph NW13.0 kmh NW 12.7 mph20.4 kmh 29.98 in1015.2 mb - 0.00 in0.0 mm 0.00 in0.0 mm
06:50 PM 81.9°F27.7°C 57.2°F14.0°C 43% 8.1 mph NW13.0 kmh NW 12.7 mph20.4 kmh 29.98 in1015.2 mb - 0.00 in0.0 mm 0.00 in0.0 mm
06:40 PM 82.2°F27.9°C 61.1°F16.2°C 49% 10.4 mph N16.7 kmh N 15.0 mph24.1 kmh 29.98 in1015.2 mb - 0.00 in0.0 mm 0.00 in0.0 mm
06:30 PM 82.2°F27.9°C 62.3°F16.8°C 51% 9.2 mph NNW14.8 kmh NNW 12.7 mph20.4 kmh 29.98 in1015.2 mb - 0.00 in0.0 mm 0.00 in0.0 mm
06:20 PM 82.2°F27.9°C 61.1°F16.2°C 49% 4.6 mph NW7.4 kmh NW 15.0 mph24.1 kmh 29.98 in1015.2 mb - 0.00 in0.0 mm 0.00 in0.0 mm
06:10 PM 82.2°F27.9°C 59.4°F15.2°C 46% 9.2 mph N14.8 kmh N 15.0 mph24.1 kmh 29.98 in1015.2 mb - 0.00 in0.0 mm 0.00 in0.0 mm
06:00 PM 82.2°F27.9°C 62.3°F16.8°C 51% 8.1 mph NW13.0 kmh NW 12.7 mph20.4 kmh 29.99 in1015.6 mb - 0.00 in0.0 mm 0.00 in0.0 mm
05:50 PM 82.4°F28.0°C 60.7°F15.9°C 48% 9.2 mph NW14.8 kmh NW 15.0 mph24.1 kmh 29.99 in1015.6 mb - 0.00 in0.0 mm 0.00 in0.0 mm
05:40 PM 82.6°F28.1°C 60.9°F16.1°C 48% 8.1 mph NW13.0 kmh NW 15.0 mph24.1 kmh 29.99 in1015.6 mb - 0.00 in0.0 mm 0.00 in0.0 mm
05:30 PM 82.8°F28.2°C 60.5°F15.8°C 47% 9.2 mph NNW14.8 kmh NNW 20.7 mph33.3 kmh 29.99 in1015.6 mb - 0.00 in0.0 mm 0.00 in0.0 mm
05:10 PM 83.3°F28.5°C 62.7°F17.1°C 50% 1.2 mph SSW1.9 kmh SSW 2.3 mph3.7 kmh 29.99 in1015.6 mb - 0.00 in0.0 mm 0.00 in0.0 mm
05:00 PM 83.3°F28.5°C 62.1°F16.7°C 49% 1.2 mph SE1.9 kmh SE 8.1 mph13.0 kmh 29.99 in1015.6 mb - 0.00 in0.0 mm 0.00 in0.0 mm
04:50 PM 83.1°F28.4°C 61.4°F16.3°C 48% 4.6 mph NNE7.4 kmh NNE 8.1 mph13.0 kmh 30.00 in1015.9 mb - 0.00 in0.0 mm 0.00 in0.0 mm
04:40 PM 83.1°F28.4°C 60.2°F15.7°C 46% 5.8 mph WSW9.3 kmh WSW 8.1 mph13.0 kmh 29.99 in1015.6 mb - 0.00 in0.0 mm 0.00 in0.0 mm
04:30 PM 83.1°F28.4°C 60.2°F15.7°C 46% 5.8 mph WSW9.3 kmh WSW 8.1 mph13.0 kmh 29.99 in1015.6 mb - 0.00 in0.0 mm 0.00 in0.0 mm
04:20 PM 83.0°F28.3°C 61.2°F16.2°C 48% 3.5 mph NW5.6 kmh NW 10.4 mph16.7 kmh 29.99 in1015.6 mb - 0.00 in0.0 mm 0.00 in0.0 mm
04:10 PM 82.9°F28.3°C 60.0°F15.6°C 46% 5.8 mph NW9.3 kmh NW 10.4 mph16.7 kmh 29.99 in1015.6 mb - 0.00 in0.0 mm 0.00 in0.0 mm
04:00 PM 85.8°F29.9°C 60.7°F15.9°C 43% 6.9 mph E11.1 kmh E 10.4 mph16.7 kmh 30.01 in1016.3 mb - 0.00 in0.0 mm 0.00 in0.0 mm
03:50 PM 85.8°F29.9°C 60.7°F15.9°C 43% 6.9 mph E11.1 kmh E 10.4 mph16.7 kmh 30.01 in1016.3 mb - 0.00 in0.0 mm 0.00 in0.0 mm
03:40 PM 85.8°F29.9°C 60.7°F15.9°C 43% 6.9 mph E11.1 kmh E 10.4 mph16.7 kmh 30.01 in1016.3 mb - 0.00 in0.0 mm 0.00 in0.0 mm
03:30 PM 85.8°F29.9°C 60.7°F15.9°C 43% 6.9 mph E11.1 kmh E 10.4 mph16.7 kmh 30.01 in1016.3 mb - 0.00 in0.0 mm 0.00 in0.0 mm
03:20 PM 85.8°F29.9°C 60.7°F15.9°C 43% 6.9 mph E11.1 kmh E 10.4 mph16.7 kmh 30.01 in1016.3 mb - 0.00 in0.0 mm 0.00 in0.0 mm
03:10 PM 85.8°F29.9°C 60.7°F15.9°C 43% 6.9 mph E11.1 kmh E 10.4 mph16.7 kmh 30.01 in1016.3 mb - 0.00 in0.0 mm 0.00 in0.0 mm
03:00 PM 85.8°F29.9°C 60.7°F15.9°C 43% 6.9 mph E11.1 kmh E 10.4 mph16.7 kmh 30.01 in1016.3 mb - 0.00 in0.0 mm 0.00 in0.0 mm
02:50 PM 85.8°F29.9°C 60.7°F15.9°C 43% 6.9 mph E11.1 kmh E 10.4 mph16.7 kmh 30.01 in1016.3 mb - 0.00 in0.0 mm 0.00 in0.0 mm
02:40 PM 85.8°F29.9°C 60.7°F15.9°C 43% 6.9 mph E11.1 kmh E 10.4 mph16.7 kmh 30.01 in1016.3 mb - 0.00 in0.0 mm 0.00 in0.0 mm
02:30 PM 85.5°F29.7°C 60.5°F15.8°C 43% 2.3 mph S3.7 kmh S 4.6 mph7.4 kmh 30.01 in1016.3 mb - 0.00 in0.0 mm 0.00 in0.0 mm
02:20 PM 85.0°F29.4°C 58.6°F14.8°C 41% 4.6 mph NNE7.4 kmh NNE 10.4 mph16.7 kmh 30.01 in1016.3 mb - 0.00 in0.0 mm 0.00 in0.0 mm
02:10 PM 84.3°F29.1°C 58.7°F14.8°C 42% 4.6 mph NW7.4 kmh NW 10.4 mph16.7 kmh 30.01 in1016.3 mb - 0.00 in0.0 mm 0.00 in0.0 mm
02:00 PM 84.0°F28.9°C 55.7°F13.2°C 38% 3.5 mph S5.6 kmh S 8.1 mph13.0 kmh 30.01 in1016.3 mb - 0.00 in0.0 mm 0.00 in0.0 mm
01:50 PM 84.2°F29.0°C 55.8°F13.2°C 38% 5.8 mph NNW9.3 kmh NNW 10.4 mph16.7 kmh 30.02 in1016.6 mb - 0.00 in0.0 mm 0.00 in0.0 mm
01:40 PM 84.4°F29.1°C 56.0°F13.3°C 38% 8.1 mph N13.0 kmh N 10.4 mph16.7 kmh 30.01 in1016.3 mb - 0.00 in0.0 mm 0.00 in0.0 mm
01:30 PM 84.4°F29.1°C 62.6°F17.0°C 48% 8.1 mph NE13.0 kmh NE 12.7 mph20.4 kmh 30.02 in1016.6 mb - 0.00 in0.0 mm 0.00 in0.0 mm
01:20 PM 84.6°F29.2°C 60.3°F15.7°C 44% 9.2 mph NNE14.8 kmh NNE 15.0 mph24.1 kmh 30.01 in1016.3 mb - 0.00 in0.0 mm 0.00 in0.0 mm
01:10 PM 84.7°F29.3°C 63.4°F17.4°C 49% 3.5 mph NNW5.6 kmh NNW 8.1 mph13.0 kmh 30.01 in1016.3 mb - 0.00 in0.0 mm 0.00 in0.0 mm
01:00 PM 84.6°F29.2°C 62.7°F17.1°C 48% 2.3 mph N3.7 kmh N 8.1 mph13.0 kmh 30.01 in1016.3 mb - 0.00 in0.0 mm 0.00 in0.0 mm
12:50 PM 84.2°F29.0°C 59.9°F15.5°C 44% 3.5 mph SE5.6 kmh SE 10.4 mph16.7 kmh 30.01 in1016.3 mb - 0.00 in0.0 mm 0.00 in0.0 mm
12:40 PM 83.8°F28.8°C 62.6°F17.0°C 49% 3.5 mph W5.6 kmh W 4.6 mph7.4 kmh 30.01 in1016.3 mb - 0.00 in0.0 mm 0.00 in0.0 mm
12:30 PM 83.8°F28.8°C 62.0°F16.7°C 48% 3.5 mph WNW5.6 kmh WNW 8.1 mph13.0 kmh 30.01 in1016.3 mb - 0.00 in0.0 mm 0.00 in0.0 mm
12:20 PM 83.8°F28.8°C 61.4°F16.3°C 47% 4.6 mph NE7.4 kmh NE 10.4 mph16.7 kmh 30.01 in1016.3 mb - 0.00 in0.0 mm 0.00 in0.0 mm
12:10 PM 83.7°F28.7°C 61.9°F16.6°C 48% 3.5 mph NW5.6 kmh NW 8.1 mph13.0 kmh 30.01 in1016.3 mb - 0.00 in0.0 mm 0.00 in0.0 mm
12:00 PM 83.6°F28.7°C 63.6°F17.6°C 51% 3.5 mph S5.6 kmh S 4.6 mph7.4 kmh 30.02 in1016.6 mb - 0.00 in0.0 mm 0.00 in0.0 mm
11:50 AM 83.3°F28.5°C 62.7°F17.1°C 50% 1.2 mph W1.9 kmh W 2.3 mph3.7 kmh 30.02 in1016.6 mb - 0.00 in0.0 mm 0.00 in0.0 mm
11:40 AM 83.3°F28.5°C 62.7°F17.1°C 50% 6.9 mph N11.1 kmh N 15.0 mph24.1 kmh 30.01 in1016.3 mb - 0.00 in0.0 mm 0.00 in0.0 mm
11:30 AM 83.1°F28.4°C 61.4°F16.3°C 48% 1.2 mph SE1.9 kmh SE 2.3 mph3.7 kmh 30.02 in1016.6 mb - 0.00 in0.0 mm 0.00 in0.0 mm
11:20 AM 82.6°F28.1°C 63.2°F17.3°C 52% 4.6 mph NNW7.4 kmh NNW 8.1 mph13.0 kmh 30.02 in1016.6 mb - 0.00 in0.0 mm 0.00 in0.0 mm
11:10 AM 81.3°F27.4°C 60.8°F16.0°C 50% 1.2 mph SW1.9 kmh SW 2.3 mph3.7 kmh 30.02 in1016.6 mb - 0.00 in0.0 mm 0.00 in0.0 mm
11:00 AM 80.4°F26.9°C 60.1°F15.6°C 50% 10.4 mph NE16.7 kmh NE 17.3 mph27.8 kmh 30.02 in1016.6 mb - 0.00 in0.0 mm 0.00 in0.0 mm
10:50 AM 80.4°F26.9°C 67.1°F19.5°C 64% 9.2 mph NW14.8 kmh NW 20.7 mph33.3 kmh 30.02 in1016.6 mb - 0.00 in0.0 mm 0.00 in0.0 mm
10:40 AM 80.2°F26.8°C 65.5°F18.6°C 61% 10.4 mph N16.7 kmh N 17.3 mph27.8 kmh 30.02 in1016.6 mb - 0.00 in0.0 mm 0.00 in0.0 mm
10:30 AM 81.0°F27.2°C 64.3°F17.9°C 57% 6.9 mph NW11.1 kmh NW 10.4 mph16.7 kmh 30.02 in1016.6 mb - 0.00 in0.0 mm 0.00 in0.0 mm
10:20 AM 81.1°F27.3°C 66.4°F19.1°C 61% 3.5 mph SE5.6 kmh SE 8.1 mph13.0 kmh 30.01 in1016.3 mb - 0.00 in0.0 mm 0.00 in0.0 mm
10:10 AM 82.0°F27.8°C 69.5°F20.8°C 66% 12.7 mph NNW20.4 kmh NNW 17.3 mph27.8 kmh 30.01 in1016.3 mb - 0.00 in0.0 mm 0.00 in0.0 mm
10:00 AM 81.4°F27.4°C 61.0°F16.1°C 50% 2.3 mph ENE3.7 kmh ENE 8.1 mph13.0 kmh 30.01 in1016.3 mb - 0.00 in0.0 mm 0.00 in0.0 mm
09:50 AM 80.2°F26.8°C 60.4°F15.8°C 51% 6.9 mph N11.1 kmh N 12.7 mph20.4 kmh 30.01 in1016.3 mb - 0.00 in0.0 mm 0.00 in0.0 mm
09:40 AM 79.0°F26.1°C 61.5°F16.4°C 55% 3.5 mph ESE5.6 kmh ESE 8.1 mph13.0 kmh 30.01 in1016.3 mb - 0.00 in0.0 mm 0.00 in0.0 mm
09:30 AM 78.4°F25.8°C 64.8°F18.2°C 63% 6.9 mph N11.1 kmh N 15.0 mph24.1 kmh 30.01 in1016.3 mb - 0.00 in0.0 mm 0.00 in0.0 mm
09:20 AM 78.4°F25.8°C 64.3°F17.9°C 62% 12.7 mph NNE20.4 kmh NNE 20.7 mph33.3 kmh 30.01 in1016.3 mb - 0.00 in0.0 mm 0.00 in0.0 mm
09:10 AM 78.8°F26.0°C 64.7°F18.2°C 62% 13.8 mph N22.2 kmh N 25.3 mph40.7 kmh 30.01 in1016.3 mb - 0.00 in0.0 mm 0.00 in0.0 mm
09:00 AM 80.2°F26.8°C 66.9°F19.4°C 64% 13.8 mph N22.2 kmh N 20.7 mph33.3 kmh 30.01 in1016.3 mb - 0.00 in0.0 mm 0.00 in0.0 mm
08:50 AM 81.3°F27.4°C 67.5°F19.7°C 63% 16.1 mph NNW25.9 kmh NNW 23.0 mph37.0 kmh 30.00 in1015.9 mb - 0.00 in0.0 mm 0.00 in0.0 mm
08:40 AM 81.9°F27.7°C 63.1°F17.3°C 53% 9.2 mph NNE14.8 kmh NNE 23.0 mph37.0 kmh 30.00 in1015.9 mb - 0.00 in0.0 mm 0.00 in0.0 mm
08:30 AM 81.1°F27.3°C 59.6°F15.3°C 48% 2.3 mph NNE3.7 kmh NNE 4.6 mph7.4 kmh 30.01 in1016.3 mb - 0.00 in0.0 mm 0.00 in0.0 mm
08:20 AM 80.5°F26.9°C 61.2°F16.2°C 52% Calm Calm 2.3 mph3.7 kmh 30.01 in1016.3 mb - 0.00 in0.0 mm 0.00 in0.0 mm
08:10 AM 79.9°F26.6°C 63.8°F17.7°C 58% 1.2 mph W1.9 kmh W 2.3 mph3.7 kmh 30.01 in1016.3 mb - 0.00 in0.0 mm 0.00 in0.0 mm
08:00 AM 79.7°F26.5°C 63.6°F17.6°C 58% 2.3 mph W3.7 kmh W 2.3 mph3.7 kmh 30.01 in1016.3 mb - 0.00 in0.0 mm 0.00 in0.0 mm
07:50 AM 79.5°F26.4°C 64.4°F18.0°C 60% 3.5 mph NW5.6 kmh NW 8.1 mph13.0 kmh 30.00 in1015.9 mb - 0.00 in0.0 mm 0.00 in0.0 mm
07:40 AM 79.1°F26.2°C 64.5°F18.1°C 61% 3.5 mph NNW5.6 kmh NNW 8.1 mph13.0 kmh 30.01 in1016.3 mb - 0.00 in0.0 mm 0.00 in0.0 mm
07:30 AM 78.4°F25.8°C 65.2°F18.4°C 64% 5.8 mph NNW9.3 kmh NNW 10.4 mph16.7 kmh 30.00 in1015.9 mb - 0.00 in0.0 mm 0.00 in0.0 mm
07:20 AM 77.9°F25.5°C 66.1°F18.9°C 67% 1.2 mph NNE1.9 kmh NNE 4.6 mph7.4 kmh 30.00 in1015.9 mb - 0.00 in0.0 mm 0.00 in0.0 mm
07:10 AM 77.8°F25.4°C 66.4°F19.1°C 68% 1.2 mph SW1.9 kmh SW 4.6 mph7.4 kmh 30.00 in1015.9 mb - 0.00 in0.0 mm 0.00 in0.0 mm
07:00 AM 78.1°F25.6°C 67.5°F19.7°C 70% 1.2 mph NNE1.9 kmh NNE 4.6 mph7.4 kmh 29.99 in1015.6 mb - 0.00 in0.0 mm 0.00 in0.0 mm
06:50 AM 78.1°F25.6°C 67.1°F19.5°C 69% 1.2 mph NE1.9 kmh NE 2.3 mph3.7 kmh 29.99 in1015.6 mb - 0.00 in0.0 mm 0.00 in0.0 mm
06:40 AM 77.9°F25.5°C 66.5°F19.2°C 68% 4.6 mph ENE7.4 kmh ENE 10.4 mph16.7 kmh 29.99 in1015.6 mb - 0.00 in0.0 mm 0.00 in0.0 mm
06:30 AM 77.5°F25.3°C 66.1°F18.9°C 68% Calm Calm 2.3 mph3.7 kmh 29.99 in1015.6 mb - 0.00 in0.0 mm 0.00 in0.0 mm
06:20 AM 77.2°F25.1°C 67.1°F19.5°C 71% 1.2 mph NNE1.9 kmh NNE 2.3 mph3.7 kmh 29.98 in1015.2 mb - 0.00 in0.0 mm 0.00 in0.0 mm
06:10 AM 76.6°F24.8°C 66.9°F19.4°C 72% 2.3 mph SW3.7 kmh SW 4.6 mph7.4 kmh 29.98 in1015.2 mb - 0.00 in0.0 mm 0.00 in0.0 mm
06:00 AM 76.3°F24.6°C 66.6°F19.2°C 72% 2.3 mph N3.7 kmh N 4.6 mph7.4 kmh 29.98 in1015.2 mb - 0.00 in0.0 mm 0.00 in0.0 mm
05:50 AM 76.1°F24.5°C 66.8°F19.3°C 73% 1.2 mph W1.9 kmh W 2.3 mph3.7 kmh 29.98 in1015.2 mb - 0.00 in0.0 mm 0.00 in0.0 mm
05:40 AM 76.1°F24.5°C 67.2°F19.6°C 74% 1.2 mph N1.9 kmh N 4.6 mph7.4 kmh 29.98 in1015.2 mb - 0.00 in0.0 mm 0.00 in0.0 mm
05:30 AM 75.9°F24.4°C 66.6°F19.2°C 73% 4.6 mph NW7.4 kmh NW 8.1 mph13.0 kmh 29.98 in1015.2 mb - 0.00 in0.0 mm 0.00 in0.0 mm
05:20 AM 75.9°F24.4°C 67.0°F19.4°C 74% 3.5 mph ENE5.6 kmh ENE 8.1 mph13.0 kmh 29.98 in1015.2 mb - 0.00 in0.0 mm 0.00 in0.0 mm
05:10 AM 75.9°F24.4°C 67.0°F19.4°C 74% 3.5 mph NE5.6 kmh NE 8.1 mph13.0 kmh 29.97 in1014.9 mb - 0.00 in0.0 mm 0.00 in0.0 mm
05:00 AM 75.9°F24.4°C 67.0°F19.4°C 74% 6.9 mph NNW11.1 kmh NNW 15.0 mph24.1 kmh 29.97 in1014.9 mb - 0.00 in0.0 mm 0.00 in0.0 mm
04:50 AM 76.1°F24.5°C 67.6°F19.8°C 75% 3.5 mph W5.6 kmh W 10.4 mph16.7 kmh 29.97 in1014.9 mb - 0.00 in0.0 mm 0.00 in0.0 mm
04:40 AM 76.1°F24.5°C 67.2°F19.6°C 74% 2.3 mph NNE3.7 kmh NNE 4.6 mph7.4 kmh 29.97 in1014.9 mb - 0.00 in0.0 mm 0.00 in0.0 mm
04:30 AM 76.1°F24.5°C 67.2°F19.6°C 74% 2.3 mph NE3.7 kmh NE 8.1 mph13.0 kmh 29.96 in1014.6 mb - 0.00 in0.0 mm 0.00 in0.0 mm
04:20 AM 76.3°F24.6°C 67.4°F19.7°C 74% 5.8 mph NE9.3 kmh NE 10.4 mph16.7 kmh 29.96 in1014.6 mb - 0.00 in0.0 mm 0.00 in0.0 mm
04:10 AM 76.3°F24.6°C 67.0°F19.4°C 73% 9.2 mph NNW14.8 kmh NNW 15.0 mph24.1 kmh 29.96 in1014.6 mb - 0.00 in0.0 mm 0.00 in0.0 mm
04:00 AM 76.5°F24.7°C 67.2°F19.6°C 73% 5.8 mph NE9.3 kmh NE 10.4 mph16.7 kmh 29.95 in1014.2 mb - 0.00 in0.0 mm 0.00 in0.0 mm
03:50 AM 76.5°F24.7°C 66.4°F19.1°C 71% 9.2 mph NNE14.8 kmh NNE 17.3 mph27.8 kmh 29.95 in1014.2 mb - 0.00 in0.0 mm 0.00 in0.0 mm
03:40 AM 76.6°F24.8°C 66.9°F19.4°C 72% 5.8 mph WNW9.3 kmh WNW 12.7 mph20.4 kmh 29.95 in1014.2 mb - 0.00 in0.0 mm 0.00 in0.0 mm
03:30 AM 76.6°F24.8°C 66.1°F18.9°C 70% 3.5 mph W5.6 kmh W 8.1 mph13.0 kmh 29.95 in1014.2 mb - 0.00 in0.0 mm 0.00 in0.0 mm
03:20 AM 76.8°F24.9°C 66.3°F19.1°C 70% 5.8 mph NNE9.3 kmh NNE 10.4 mph16.7 kmh 29.95 in1014.2 mb - 0.00 in0.0 mm 0.00 in0.0 mm
03:10 AM 76.8°F24.9°C 66.3°F19.1°C 70% 9.2 mph NW14.8 kmh NW 17.3 mph27.8 kmh 29.95 in1014.2 mb - 0.00 in0.0 mm 0.00 in0.0 mm
03:00 AM 77.2°F25.1°C 66.2°F19.0°C 69% 8.1 mph N13.0 kmh N 15.0 mph24.1 kmh 29.95 in1014.2 mb - 0.00 in0.0 mm 0.00 in0.0 mm
02:50 AM 77.4°F25.2°C 65.6°F18.7°C 67% 9.2 mph NNW14.8 kmh NNW 17.3 mph27.8 kmh 29.94 in1013.9 mb - 0.00 in0.0 mm 0.00 in0.0 mm
02:40 AM 77.5°F25.3°C 65.2°F18.4°C 66% 16.1 mph NNW25.9 kmh NNW 23.0 mph37.0 kmh 29.94 in1013.9 mb - 0.00 in0.0 mm 0.00 in0.0 mm
02:30 AM 77.4°F25.2°C 64.7°F18.2°C 65% 8.1 mph NNE13.0 kmh NNE 12.7 mph20.4 kmh 29.94 in1013.9 mb - 0.00 in0.0 mm 0.00 in0.0 mm
02:20 AM 77.2°F25.1°C 64.5°F18.1°C 65% 6.9 mph NNE11.1 kmh NNE 12.7 mph20.4 kmh 29.94 in1013.9 mb - 0.00 in0.0 mm 0.00 in0.0 mm
02:10 AM 77.0°F25.0°C 64.8°F18.2°C 66% 5.8 mph NE9.3 kmh NE 10.4 mph16.7 kmh 29.95 in1014.2 mb - 0.00 in0.0 mm 0.00 in0.0 mm
02:00 AM 77.2°F25.1°C 64.1°F17.8°C 64% 6.9 mph NW11.1 kmh NW 10.4 mph16.7 kmh 29.95 in1014.2 mb - 0.00 in0.0 mm 0.00 in0.0 mm
01:50 AM 77.4°F25.2°C 64.7°F18.2°C 65% 11.5 mph NW18.5 kmh NW 15.0 mph24.1 kmh 29.95 in1014.2 mb - 0.00 in0.0 mm 0.00 in0.0 mm
01:40 AM 77.4°F25.2°C 64.3°F17.9°C 64% 9.2 mph NNW14.8 kmh NNW 15.0 mph24.1 kmh 29.95 in1014.2 mb - 0.00 in0.0 mm 0.00 in0.0 mm
01:30 AM 77.5°F25.3°C 63.5°F17.5°C 62% 8.1 mph N13.0 kmh N 20.7 mph33.3 kmh 29.95 in1014.2 mb - 0.00 in0.0 mm 0.00 in0.0 mm
01:20 AM 77.5°F25.3°C 62.5°F16.9°C 60% 13.8 mph NNW22.2 kmh NNW 17.3 mph27.8 kmh 29.96 in1014.6 mb - 0.00 in0.0 mm 0.00 in0.0 mm
01:10 AM 77.5°F25.3°C 62.5°F16.9°C 60% 13.8 mph NNW22.2 kmh NNW 20.7 mph33.3 kmh 29.95 in1014.2 mb - 0.00 in0.0 mm 0.00 in0.0 mm
01:00 AM 77.5°F25.3°C 63.0°F17.2°C 61% 11.5 mph NNW18.5 kmh NNW 17.3 mph27.8 kmh 29.96 in1014.6 mb - 0.00 in0.0 mm 0.00 in0.0 mm
12:50 AM 77.4°F25.2°C 62.4°F16.9°C 60% 12.7 mph NW20.4 kmh NW 20.7 mph33.3 kmh 29.95 in1014.2 mb - 0.00 in0.0 mm 0.00 in0.0 mm
12:40 AM 77.4°F25.2°C 63.4°F17.4°C 62% 10.4 mph NNW16.7 kmh NNW 15.0 mph24.1 kmh 29.96 in1014.6 mb - 0.00 in0.0 mm 0.00 in0.0 mm
12:30 AM 77.4°F25.2°C 63.8°F17.7°C 63% 13.8 mph NW22.2 kmh NW 17.3 mph27.8 kmh 29.96 in1014.6 mb - 0.00 in0.0 mm 0.00 in0.0 mm
12:20 AM 77.7°F25.4°C 63.2°F17.3°C 61% 5.8 mph NW9.3 kmh NW 12.7 mph20.4 kmh 29.96 in1014.6 mb - 0.00 in0.0 mm 0.00 in0.0 mm
12:10 AM 77.7°F25.4°C 63.2°F17.3°C 61% 8.1 mph WNW13.0 kmh WNW 10.4 mph16.7 kmh 29.96 in1014.6 mb - 0.00 in0.0 mm 0.00 in0.0 mm
12:00 AM 77.7°F25.4°C 62.7°F17.1°C 60% 9.2 mph NW14.8 kmh NW 15.0 mph24.1 kmh 29.96 in1014.6 mb - 0.00 in0.0 mm 0.00 in0.0 mm